Time;durP1;ratioP1;P1;durP2;ratioP2;P2;SDS_P1;SDS_P2;PMS_P1;PMS_P2;Temp;Humidity;BMP_temperature;BMP_pressure;BME280_temperature;BME280_humidity;BME280_pressure;Samples;Min_cycle;Max_cycle;Signal;HPM_P1;HPM_P2
2022/08/15 00:00:49;;;;;;;5.07;2.90;;;20.80;99.90;;;;;;5038425;28;20045;-81
2022/08/15 00:03:29;;;;;;;5.47;3.38;;;20.80;99.90;;;;;;5035339;28;20060;-81
2022/08/15 00:06:02;;;;;;;6.20;3.45;;;20.80;99.90;;;;;;5035343;28;20049;-82
2022/08/15 00:08:31;;;;;;;6.05;3.05;;;20.70;99.90;;;;;;5031237;28;20402;-82
2022/08/15 00:11:07;;;;;;;6.85;3.92;;;20.70;99.90;;;;;;5038711;28;20072;-81
2022/08/15 00:13:33;;;;;;;5.53;3.40;;;20.70;99.90;;;;;;5039493;28;20040;-81
2022/08/15 00:15:59;;;;;;;5.28;3.15;;;20.70;99.90;;;;;;5055435;28;20056;-82
2022/08/15 00:18:27;;;;;;;5.95;3.92;;;20.70;99.90;;;;;;5022692;28;20040;-81
2022/08/15 00:20:56;;;;;;;6.70;3.95;;;20.60;99.90;;;;;;5039084;28;20051;-81
2022/08/15 00:26:22;;;;;;;7.20;3.70;;;20.60;99.90;;;;;;5034047;28;20048;-82
2022/08/15 00:28:48;;;;;;;5.85;3.40;;;20.50;99.90;;;;;;5054816;28;20490;-85
2022/08/15 00:31:13;;;;;;;6.43;3.55;;;20.50;99.90;;;;;;5038602;28;20037;-85
2022/08/15 00:33:40;;;;;;;5.80;3.72;;;20.50;99.90;;;;;;5038820;28;20048;-85
2022/08/15 00:36:07;;;;;;;7.90;3.58;;;20.40;99.90;;;;;;5055422;28;20044;-84
2022/08/15 00:38:33;;;;;;;7.93;4.20;;;20.40;99.90;;;;;;5038764;28;20037;-85
2022/08/15 00:43:58;;;;;;;6.57;3.75;;;20.30;99.90;;;;;;5055150;28;20114;-85
2022/08/15 00:46:25;;;;;;;9.27;5.40;;;20.30;99.90;;;;;;5054507;28;20040;-85
2022/08/15 00:48:52;;;;;;;9.00;4.20;;;20.30;99.90;;;;;;5054631;28;20075;-85
2022/08/15 00:51:31;;;;;;;6.05;3.60;;;20.30;99.90;;;;;;5047797;28;20055;-85
2022/08/15 00:54:04;;;;;;;6.85;3.60;;;20.30;99.90;;;;;;5055038;28;20036;-85
2022/08/15 00:56:35;;;;;;;7.80;3.65;;;20.30;99.90;;;;;;5054993;28;20044;-85
2022/08/15 00:59:03;;;;;;;5.45;3.53;;;20.30;99.90;;;;;;5038327;28;20066;-85
2022/08/15 01:01:28;;;;;;;6.88;3.88;;;20.30;99.90;;;;;;5054491;28;20502;-85
2022/08/15 01:03:54;;;;;;;8.90;5.18;;;20.20;99.90;;;;;;5055159;28;20134;-84
2022/08/15 01:06:21;;;;;;;8.98;4.50;;;20.20;99.90;;;;;;5054924;28;20406;-84
2022/08/15 01:08:48;;;;;;;7.68;4.65;;;20.10;99.90;;;;;;5057694;28;20137;-84
2022/08/15 01:11:25;;;;;;;8.45;4.80;;;20.10;99.90;;;;;;5058685;28;20383;-85
2022/08/15 01:13:55;;;;;;;6.32;4.07;;;20.00;99.90;;;;;;5058440;28;20113;-84
2022/08/15 01:16:24;;;;;;;8.63;5.20;;;20.00;99.90;;;;;;5058475;28;20067;-85
2022/08/15 01:18:51;;;;;;;8.35;4.80;;;20.00;99.90;;;;;;5041590;28;20029;-81
2022/08/15 01:21:38;;;;;;;10.93;5.68;;;20.00;99.90;;;;;;5042010;28;20036;-81
2022/08/15 01:24:37;;;;;;;9.30;5.47;;;19.90;99.90;;;;;;5041843;28;20119;-81
2022/08/15 01:27:03;;;;;;;8.48;4.90;;;19.80;99.90;;;;;;5032176;28;20051;-81
2022/08/15 01:29:29;;;;;;;6.10;4.10;;;19.80;99.90;;;;;;5058500;28;20043;-81
2022/08/15 01:31:55;;;;;;;9.88;5.97;;;19.80;99.90;;;;;;5058072;28;20040;-81
2022/08/15 01:34:20;;;;;;;8.95;5.97;;;19.80;99.90;;;;;;5041862;28;20033;-84
2022/08/15 01:36:48;;;;;;;8.07;4.53;;;19.80;99.90;;;;;;5008454;28;20551;-84
2022/08/15 01:39:37;;;;;;;11.27;5.63;;;19.70;99.90;;;;;;5058114;28;20091;-85
2022/08/15 01:42:14;;;;;;;9.32;5.35;;;19.70;99.90;;;;;;5057883;28;20413;-84
2022/08/15 01:44:50;;;;;;;11.20;5.30;;;19.60;99.90;;;;;;5057924;28;20043;-84
2022/08/15 01:47:28;;;;;;;8.23;4.88;;;19.60;99.90;;;;;;5041689;28;20157;-84
2022/08/15 01:50:21;;;;;;;10.25;5.18;;;19.60;99.90;;;;;;5041774;28;20052;-82
2022/08/15 01:53:04;;;;;;;7.43;4.53;;;19.60;99.90;;;;;;5040571;28;20048;-81
2022/08/15 01:55:42;;;;;;;7.85;4.38;;;19.50;99.90;;;;;;5057717;28;20094;-81
2022/08/15 01:58:08;;;;;;;10.10;6.00;;;19.50;99.90;;;;;;5057371;28;20041;-81
2022/08/15 02:00:36;;;;;;;14.32;6.95;;;19.50;99.90;;;;;;5057226;28;20045;-81
2022/08/15 02:03:02;;;;;;;11.80;6.53;;;19.50;99.90;;;;;;5057186;28;20028;-81
2022/08/15 02:05:28;;;;;;;8.55;5.10;;;19.50;99.90;;;;;;5024484;28;20074;-81
2022/08/15 02:07:53;;;;;;;7.35;4.97;;;19.50;99.90;;;;;;5057619;28;20110;-85
2022/08/15 02:10:19;;;;;;;8.60;5.38;;;19.50;99.90;;;;;;5040700;28;20067;-84
2022/08/15 02:12:45;;;;;;;10.18;5.93;;;19.50;99.90;;;;;;5040651;28;20048;-84
2022/08/15 02:15:18;;;;;;;12.55;6.43;;;19.50;99.90;;;;;;5057305;28;20044;-85
2022/08/15 02:17:44;;;;;;;14.90;7.13;;;19.50;99.90;;;;;;5040733;28;20386;-84
2022/08/15 02:20:13;;;;;;;12.25;5.97;;;19.50;99.90;;;;;;5056299;28;20040;-84
2022/08/15 02:22:39;;;;;;;9.10;5.20;;;19.40;99.90;;;;;;5040177;28;20044;-85
2022/08/15 02:25:07;;;;;;;9.40;5.25;;;19.40;99.90;;;;;;5057246;28;20573;-84
2022/08/15 02:27:35;;;;;;;7.45;4.40;;;19.40;99.90;;;;;;5057231;28;20040;-84
2022/08/15 02:30:13;;;;;;;7.78;5.07;;;19.40;99.90;;;;;;5040110;28;20483;-85
2022/08/15 02:32:40;;;;;;;10.90;6.75;;;19.40;99.90;;;;;;5040928;28;20050;-84
2022/08/15 02:35:08;;;;;;;15.13;7.22;;;19.50;99.90;;;;;;5057302;28;20466;-84
2022/08/15 02:37:34;;;;;;;9.40;6.40;;;19.50;99.90;;;;;;5040427;28;20032;-84
2022/08/15 02:40:00;;;;;;;11.73;6.10;;;19.50;99.90;;;;;;5056811;28;20085;-82
2022/08/15 02:42:27;;;;;;;8.45;5.50;;;19.50;99.90;;;;;;5040392;28;20359;-82
2022/08/15 02:44:53;;;;;;;10.38;5.75;;;19.60;99.90;;;;;;5056916;28;20467;-82
2022/08/15 02:47:19;;;;;;;18.48;8.50;;;19.60;99.90;;;;;;5056751;28;20044;-82
2022/08/15 02:49:45;;;;;;;11.68;7.18;;;19.60;99.90;;;;;;5040127;28;20052;-82
2022/08/15 02:52:12;;;;;;;13.88;7.63;;;19.60;99.90;;;;;;5040141;28;20048;-82
2022/08/15 02:54:39;;;;;;;12.60;7.32;;;19.70;99.90;;;;;;5056460;28;20044;-82
2022/08/15 02:57:06;;;;;;;13.25;8.57;;;19.70;99.90;;;;;;5040311;28;20062;-85
2022/08/15 02:59:32;;;;;;;12.55;6.75;;;19.80;99.90;;;;;;5039973;28;20051;-85
2022/08/15 03:01:59;;;;;;;11.38;6.90;;;19.80;99.90;;;;;;5039706;28;20040;-85
2022/08/15 03:04:25;;;;;;;12.73;6.72;;;19.90;99.90;;;;;;5056202;28;20044;-85
2022/08/15 03:06:53;;;;;;;11.23;6.25;;;19.90;99.90;;;;;;5039486;28;20398;-85
2022/08/15 03:09:21;;;;;;;12.07;6.57;;;20.00;99.90;;;;;;5056171;28;20064;-85
2022/08/15 03:11:47;;;;;;;13.07;7.57;;;20.00;99.90;;;;;;5056186;28;20375;-85
2022/08/15 03:14:17;;;;;;;11.40;6.72;;;20.00;99.90;;;;;;5056334;28;20037;-84
2022/08/15 03:16:45;;;;;;;8.60;5.68;;;20.10;99.90;;;;;;5042885;28;20047;-85
2022/08/15 03:19:22;;;;;;;9.73;5.22;;;20.10;99.90;;;;;;5075986;28;20054;-85
2022/08/15 03:21:49;;;;;;;8.52;5.25;;;20.10;99.90;;;;;;5076224;28;20127;-85
2022/08/15 03:24:16;;;;;;;9.63;5.07;;;20.10;99.90;;;;;;5041868;28;20052;-85
2022/08/15 03:26:45;;;;;;;7.82;4.55;;;20.00;99.90;;;;;;5046709;28;20067;-85
2022/08/15 03:29:15;;;;;;;10.88;7.35;;;20.00;99.90;;;;;;5039680;28;20044;-85
2022/08/15 03:31:41;;;;;;;11.40;5.70;;;20.00;99.90;;;;;;5055890;28;20119;-85
2022/08/15 03:34:07;;;;;;;8.73;5.18;;;19.90;99.90;;;;;;5055937;28;20040;-84
2022/08/15 03:36:33;;;;;;;9.30;4.85;;;19.90;99.90;;;;;;5055634;28;20120;-85
2022/08/15 03:38:59;;;;;;;8.38;5.22;;;19.80;99.90;;;;;;5055670;28;20048;-85
2022/08/15 03:41:25;;;;;;;9.40;5.50;;;19.70;99.90;;;;;;5055498;28;20049;-84
2022/08/15 03:43:51;;;;;;;12.02;6.47;;;19.70;99.90;;;;;;5039352;28;20055;-84
2022/08/15 03:46:20;;;;;;;12.45;6.65;;;19.60;99.90;;;;;;5055780;28;20490;-84
2022/08/15 03:48:52;;;;;;;10.95;5.43;;;19.60;99.90;;;;;;5035843;23;20056;-82
2022/08/15 03:51:21;;;;;;;9.13;5.18;;;19.50;99.90;;;;;;5035018;28;20048;-82
2022/08/15 03:53:50;;;;;;;7.63;4.97;;;19.50;99.90;;;;;;5036603;28;20052;-82
2022/08/15 03:56:21;;;;;;;7.80;4.65;;;19.50;99.90;;;;;;5036035;28;20037;-82
2022/08/15 03:58:48;;;;;;;5.72;3.85;;;19.40;99.90;;;;;;5032474;28;20202;-82
2022/08/15 04:01:21;;;;;;;9.63;5.38;;;19.40;99.90;;;;;;5035954;28;20041;-82
2022/08/15 04:03:48;;;;;;;11.93;6.35;;;19.30;99.90;;;;;;5036410;28;20478;-82
2022/08/15 04:06:16;;;;;;;11.18;5.05;;;19.30;99.90;;;;;;5019685;28;20041;-81
2022/08/15 04:08:45;;;;;;;8.82;5.53;;;19.30;99.90;;;;;;5027851;28;20060;-81
2022/08/15 04:11:11;;;;;;;8.13;4.80;;;19.20;99.90;;;;;;5020023;28;20041;-81
2022/08/15 04:13:39;;;;;;;8.27;4.57;;;19.20;99.90;;;;;;5035767;28;20463;-81
2022/08/15 04:16:05;;;;;;;7.93;4.15;;;19.20;99.90;;;;;;5035589;28;20048;-81
2022/08/15 04:18:31;;;;;;;6.45;3.90;;;19.20;99.90;;;;;;5017478;28;20052;-81
2022/08/15 04:21:02;;;;;;;7.05;4.38;;;19.20;99.90;;;;;;4983851;28;20037;-80
2022/08/15 04:23:30;;;;;;;8.40;5.15;;;19.20;99.90;;;;;;4999541;28;20038;-80
2022/08/15 04:25:56;;;;;;;9.05;5.20;;;19.20;99.90;;;;;;5002974;28;20033;-79
2022/08/15 04:28:24;;;;;;;13.40;7.15;;;19.20;99.90;;;;;;5033325;28;20491;-79
2022/08/15 04:30:50;;;;;;;8.98;5.32;;;19.20;99.90;;;;;;5034288;28;20123;-79
2022/08/15 04:33:20;;;;;;;8.60;5.15;;;19.20;99.90;;;;;;5035833;28;20058;-79
2022/08/15 04:36:10;;;;;;;13.38;7.38;;;19.20;99.90;;;;;;5019484;28;20390;-80
2022/08/15 04:38:42;;;;;;;9.18;5.97;;;19.20;99.90;;;;;;5036000;28;20037;-79
2022/08/15 04:41:10;;;;;;;8.85;4.97;;;19.20;99.90;;;;;;5034430;28;20595;-79
2022/08/15 04:43:38;;;;;;;9.48;5.68;;;19.20;99.90;;;;;;5020829;28;20502;-79
2022/08/15 04:46:04;;;;;;;8.25;5.30;;;19.20;99.90;;;;;;5038948;28;20112;-79
2022/08/15 04:48:31;;;;;;;8.70;5.13;;;19.30;99.90;;;;;;5038580;28;20053;-79
2022/08/15 04:50:58;;;;;;;8.77;4.82;;;19.30;99.90;;;;;;5021734;28;20047;-79
2022/08/15 04:53:28;;;;;;;7.72;4.55;;;19.30;99.90;;;;;;5039045;28;20127;-81
2022/08/15 04:55:58;;;;;;;12.15;6.35;;;19.40;99.90;;;;;;5025680;28;20128;-81
2022/08/15 04:58:23;;;;;;;11.15;6.68;;;19.50;99.90;;;;;;5039116;28;20051;-81
2022/08/15 05:00:58;;;;;;;8.48;5.55;;;19.60;99.90;;;;;;5038628;28;20386;-81
2022/08/15 05:03:24;;;;;;;9.55;5.68;;;19.70;99.90;;;;;;5036822;28;20432;-81
2022/08/15 05:05:53;;;;;;;7.65;5.47;;;19.90;99.90;;;;;;5037806;28;20116;-81
2022/08/15 05:08:21;;;;;;;9.82;5.78;;;20.10;99.90;;;;;;5018953;28;20068;-81
2022/08/15 05:10:54;;;;;;;12.30;6.82;;;20.30;99.90;;;;;;5022123;28;20504;-79
2022/08/15 05:13:26;;;;;;;13.88;5.88;;;20.40;99.90;;;;;;5021167;28;20488;-80
2022/08/15 05:15:53;;;;;;;7.60;5.00;;;20.50;99.90;;;;;;5030209;28;20036;-80
2022/08/15 05:18:20;;;;;;;10.93;6.15;;;20.60;99.90;;;;;;5038704;28;20137;-80
2022/08/15 05:20:46;;;;;;;9.52;6.00;;;20.60;99.90;;;;;;5038737;28;20073;-80
2022/08/15 05:23:15;;;;;;;9.45;6.00;;;20.60;99.90;;;;;;5028185;28;20084;-79
2022/08/15 05:25:44;;;;;;;10.35;5.05;;;20.70;99.90;;;;;;5037574;28;20044;-79
2022/08/15 05:28:12;;;;;;;14.90;6.95;;;20.80;99.90;;;;;;5038514;28;20049;-81
2022/08/15 05:30:37;;;;;;;11.20;5.55;;;20.80;99.90;;;;;;5021726;28;20052;-81
2022/08/15 05:33:05;;;;;;;13.98;6.57;;;20.90;99.90;;;;;;5038603;28;20041;-81
2022/08/15 05:35:31;;;;;;;10.23;5.53;;;21.10;99.90;;;;;;5038119;28;20047;-81
2022/08/15 05:38:00;;;;;;;9.23;5.82;;;21.20;99.90;;;;;;5021960;28;20041;-81
2022/08/15 05:40:34;;;;;;;9.70;5.72;;;21.30;99.90;;;;;;5037793;28;20033;-81
2022/08/15 05:43:22;;;;;;;8.38;5.28;;;21.40;99.90;;;;;;5038628;28;20467;-81
2022/08/15 05:46:26;;;;;;;10.05;5.80;;;21.70;99.90;;;;;;5037931;28;20048;-81
2022/08/15 05:49:11;;;;;;;10.23;6.70;;;21.80;99.90;;;;;;5018088;28;20594;-81
2022/08/15 05:51:46;;;;;;;11.07;6.65;;;22.00;99.90;;;;;;5018520;28;20442;-81
2022/08/15 05:54:44;;;;;;;10.98;6.72;;;22.20;99.90;;;;;;5002955;28;20535;-81
2022/08/15 05:57:25;;;;;;;11.18;6.00;;;22.30;99.90;;;;;;5031528;28;20136;-81
2022/08/15 05:59:58;;;;;;;12.32;6.38;;;22.50;99.90;;;;;;5015060;28;20041;-81
2022/08/15 06:02:34;;;;;;;10.52;5.93;;;22.60;99.90;;;;;;5034531;28;20041;-80
2022/08/15 06:05:10;;;;;;;7.00;4.38;;;22.70;99.90;;;;;;5027204;28;20116;-80
2022/08/15 06:07:38;;;;;;;11.05;6.78;;;22.90;99.90;;;;;;5034254;28;20133;-80
2022/08/15 06:10:23;;;;;;;8.07;5.28;;;23.20;99.90;;;;;;5020394;28;20382;-80
2022/08/15 06:12:51;;;;;;;10.60;6.05;;;23.40;99.90;;;;;;5015750;28;20487;-81
2022/08/15 06:15:23;;;;;;;8.10;5.43;;;23.60;99.90;;;;;;5037126;28;20076;-81
2022/08/15 06:18:02;;;;;;;13.20;6.20;;;23.90;99.90;;;;;;5015257;28;20063;-82
2022/08/15 06:20:46;;;;;;;9.15;6.10;;;24.10;99.90;;;;;;5032769;28;20076;-82
2022/08/15 06:23:29;;;;;;;11.05;5.95;;;24.30;99.90;;;;;;5036717;28;20441;-82
2022/08/15 06:26:02;;;;;;;9.55;5.60;;;24.60;99.90;;;;;;5037609;28;20036;-82
2022/08/15 06:28:58;;;;;;;7.10;5.00;;;25.00;99.90;;;;;;5018114;28;20399;-82
2022/08/15 06:31:31;;;;;;;;;;;25.60;99.90;;;;;;5024625;28;20390;-82
2022/08/15 06:34:06;;;;;;;9.30;5.05;;;26.50;99.90;;;;;;5021292;28;19924;-80
2022/08/15 06:37:13;;;;;;;8.45;5.63;;;27.30;99.90;;;;;;5019919;28;20494;-79
2022/08/15 06:39:50;;;;;;;9.13;4.90;;;28.00;98.00;;;;;;5022419;28;21585;-80
2022/08/15 06:42:33;;;;;;;8.88;5.53;;;28.20;97.00;;;;;;5020471;28;21595;-80
2022/08/15 06:45:04;;;;;;;9.85;5.00;;;28.90;95.70;;;;;;5021562;28;21770;-80
2022/08/15 06:47:30;;;;;;;8.95;5.35;;;29.80;94.60;;;;;;5023159;28;20038;-80
2022/08/15 06:50:02;;;;;;;12.55;5.65;;;30.40;94.50;;;;;;5028462;28;20044;-81
2022/08/15 06:52:29;;;;;;;8.48;4.57;;;30.80;91.70;;;;;;5027845;28;20120;-81
2022/08/15 06:54:57;;;;;;;6.30;4.25;;;31.40;91.60;;;;;;5027936;28;20040;-81
2022/08/15 06:57:54;;;;;;;7.43;4.38;;;31.20;91.70;;;;;;5026306;28;20443;-81
2022/08/15 07:00:40;;;;;;;5.80;3.97;;;30.60;91.80;;;;;;5028191;28;20029;-81
2022/08/15 07:03:33;;;;;;;6.18;4.15;;;30.60;91.70;;;;;;5017350;28;20042;-81
2022/08/15 07:05:58;;;;;;;7.60;4.15;;;30.60;91.00;;;;;;5029986;28;20056;-81
2022/08/15 07:08:42;;;;;;;6.68;4.40;;;31.30;90.30;;;;;;5012019;28;20403;-82
2022/08/15 07:11:30;;;;;;;6.40;3.90;;;32.30;90.60;;;;;;5030247;28;20048;-82
2022/08/15 07:14:06;;;;;;;7.25;4.15;;;33.50;88.20;;;;;;5027549;28;20048;-82
2022/08/15 07:16:42;;;;;;;6.65;4.05;;;34.20;83.90;;;;;;5030706;28;20045;-82
2022/08/15 07:19:10;;;;;;;6.60;3.53;;;34.40;81.50;;;;;;5030266;28;20045;-82
2022/08/15 07:21:37;;;;;;;6.93;4.38;;;34.60;82.50;;;;;;5027505;28;20049;-82
2022/08/15 07:24:21;;;;;;;5.25;3.53;;;34.20;81.40;;;;;;5021253;28;20081;-82
2022/08/15 07:26:54;;;;;;;6.13;3.67;;;33.40;81.50;;;;;;5026732;28;20111;-82
2022/08/15 07:29:31;;;;;;;5.22;3.70;;;32.90;82.90;;;;;;5028297;28;20103;-82
2022/08/15 07:32:20;;;;;;;7.28;4.35;;;32.50;84.30;;;;;;5026242;28;20140;-81
2022/08/15 07:35:05;;;;;;;7.13;3.47;;;32.80;84.30;;;;;;5021537;28;20053;-82
2022/08/15 07:37:38;;;;;;;7.68;4.00;;;33.70;83.80;;;;;;5016000;28;20047;-82
2022/08/15 07:40:25;;;;;;;5.88;4.07;;;34.80;80.60;;;;;;5014432;28;20037;-80
2022/08/15 07:42:52;;;;;;;7.32;4.10;;;35.30;80.00;;;;;;5026939;28;20037;-80
2022/08/15 07:45:34;;;;;;;6.70;4.00;;;35.60;78.70;;;;;;5027231;28;20037;-80
2022/08/15 07:48:04;;;;;;;6.43;3.97;;;35.70;78.00;;;;;;5033504;28;20075;-80
2022/08/15 07:50:35;;;;;;;5.18;3.50;;;35.40;76.60;;;;;;5035537;28;20053;-80
2022/08/15 07:53:13;;;;;;;5.43;3.75;;;35.80;77.20;;;;;;5010430;28;20494;-80
2022/08/15 07:55:39;;;;;;;6.15;3.80;;;36.00;76.50;;;;;;5029581;28;20371;-80
2022/08/15 07:58:13;;;;;;;6.88;3.90;;;35.80;75.70;;;;;;5018942;28;20041;-83
2022/08/15 08:00:39;;;;;;;5.70;3.97;;;35.30;76.10;;;;;;5022912;28;20037;-83
2022/08/15 08:03:15;;;;;;;6.80;3.83;;;35.00;76.20;;;;;;5038934;28;20076;-84
2022/08/15 08:06:08;;;;;;;6.45;4.43;;;35.70;77.60;;;;;;5035025;28;20461;-84
2022/08/15 08:09:35;;;;;;;4.82;3.40;;;36.00;74.90;;;;;;5028476;28;20076;-84
2022/08/15 08:12:07;;;;;;;6.82;3.90;;;36.60;75.00;;;;;;4991330;28;20050;-83
2022/08/15 08:15:05;;;;;;;5.13;3.40;;;37.10;76.20;;;;;;5034087;28;20049;-83
2022/08/15 08:17:32;;;;;;;4.80;3.38;;;37.80;74.20;;;;;;5041305;28;20369;-83
2022/08/15 08:20:18;;;;;;;6.88;3.35;;;38.00;72.40;;;;;;5033601;28;20049;-83
2022/08/15 08:23:14;;;;;;;5.68;3.83;;;37.80;71.40;;;;;;5029887;28;20044;-83
2022/08/15 08:26:01;;;;;;;5.60;3.88;;;37.40;70.10;;;;;;5014149;28;20046;-83
2022/08/15 08:28:47;;;;;;;5.13;3.60;;;37.20;72.10;;;;;;5017719;28;20045;-83
2022/08/15 08:31:38;;;;;;;7.25;3.38;;;37.20;72.50;;;;;;5033237;28;20051;-83
2022/08/15 08:34:15;;;;;;;4.72;3.10;;;37.60;72.00;;;;;;5029390;28;20045;-83
2022/08/15 08:37:11;;;;;;;5.30;3.83;;;37.90;69.90;;;;;;5022950;28;20033;-82
2022/08/15 08:39:48;;;;;;;6.35;4.20;;;38.10;71.80;;;;;;5020965;28;20124;-82
2022/08/15 08:42:36;;;;;;;5.45;3.50;;;37.40;69.90;;;;;;5025118;28;20033;-83
2022/08/15 08:45:19;;;;;;;6.85;4.10;;;38.00;71.50;;;;;;5019911;28;20124;-83
2022/08/15 08:48:12;;;;;;;5.00;3.55;;;38.20;72.30;;;;;;5019241;28;20053;-81
2022/08/15 08:50:44;;;;;;;5.70;3.60;;;38.50;71.40;;;;;;5037101;28;20171;-81
2022/08/15 08:53:20;;;;;;;7.28;4.03;;;38.50;70.90;;;;;;5037895;28;20049;-81
2022/08/15 08:56:16;;;;;;;7.85;4.43;;;38.50;70.10;;;;;;5036058;28;20506;-81
2022/08/15 08:59:01;;;;;;;6.15;4.22;;;39.20;72.10;;;;;;5013697;28;20510;-81
2022/08/15 09:01:29;;;;;;;8.43;4.18;;;39.70;70.50;;;;;;5017828;28;20130;-81
2022/08/15 09:04:06;;;;;;;6.50;4.32;;;39.80;69.90;;;;;;5010157;28;20468;-82
2022/08/15 09:06:38;;;;;;;6.30;3.95;;;39.00;69.40;;;;;;5017190;28;20116;-81
2022/08/15 09:09:34;;;;;;;5.38;3.30;;;38.70;67.60;;;;;;5016199;28;20047;-81
2022/08/15 09:14:56;;;;;;;5.40;3.75;;;38.60;68.10;;;;;;5028564;28;20049;-80
2022/08/15 09:17:24;;;;;;;5.60;3.85;;;39.00;68.10;;;;;;5015717;28;20041;-81
2022/08/15 09:20:01;;;;;;;5.97;4.43;;;39.20;68.50;;;;;;5036368;28;20041;-81
2022/08/15 09:22:26;;;;;;;8.38;4.15;;;39.60;68.30;;;;;;5038004;28;20086;-81
2022/08/15 09:24:53;;;;;;;5.38;3.85;;;40.00;68.90;;;;;;5037749;28;20045;-81
2022/08/15 09:27:48;;;;;;;7.15;4.13;;;40.90;66.80;;;;;;5029540;28;20660;-81
2022/08/15 09:30:16;;;;;;;6.95;4.43;;;40.00;67.30;;;;;;5012299;28;20044;-81
2022/08/15 09:33:00;;;;;;;6.95;4.40;;;40.60;67.40;;;;;;5016010;28;20111;-81
2022/08/15 09:35:33;;;;;;;5.47;4.22;;;40.20;65.90;;;;;;5032871;28;20069;-81
2022/08/15 09:38:30;;;;;;;6.10;3.60;;;40.40;65.80;;;;;;5037522;28;20095;-81
2022/08/15 09:41:20;;;;;;;5.68;4.30;;;40.60;66.40;;;;;;5028435;28;20045;-81
2022/08/15 09:44:09;;;;;;;6.30;3.92;;;40.80;67.00;;;;;;5018744;28;20128;-81
2022/08/15 09:47:00;;;;;;;6.93;4.10;;;41.20;66.20;;;;;;5002725;28;20037;-81
2022/08/15 09:49:44;;;;;;;6.30;3.95;;;41.60;66.70;;;;;;5030988;28;20144;-81
2022/08/15 09:52:18;;;;;;;7.35;4.22;;;42.40;64.50;;;;;;5028488;28;20080;-81
2022/08/15 09:54:56;;;;;;;;;;;42.20;64.10;;;;;;5010682;28;20083;-81
2022/08/15 09:57:28;;;;;;;8.38;4.65;;;41.70;65.50;;;;;;5018507;28;19916;-81
2022/08/15 10:00:40;;;;;;;6.47;4.35;;;41.10;64.40;;;;;;5014621;28;20490;-80
2022/08/15 10:03:20;;;;;;;5.65;4.03;;;41.40;65.40;;;;;;5022056;28;21895;-80
2022/08/15 10:06:00;;;;;;;7.65;4.55;;;41.00;65.80;;;;;;5029490;28;20091;-80
2022/08/15 10:08:54;;;;;;;5.25;3.70;;;40.80;65.30;;;;;;5034866;28;20040;-80
2022/08/15 10:11:27;;;;;;;5.73;4.10;;;40.50;65.00;;;;;;5028207;28;20402;-79
2022/08/15 10:14:47;;;;;;;7.13;4.47;;;39.60;65.60;;;;;;5029405;28;20354;-79
2022/08/15 10:17:27;;;;;;;8.15;4.78;;;38.30;66.40;;;;;;4970438;28;20038;-79
2022/08/15 10:19:54;;;;;;;6.35;3.97;;;38.10;66.40;;;;;;5014417;28;20472;-79
2022/08/15 10:22:24;;;;;;;7.50;4.75;;;38.40;66.50;;;;;;5029434;28;20060;-79
2022/08/15 10:25:22;;;;;;;5.35;4.00;;;38.30;67.50;;;;;;5032457;28;20051;-79
2022/08/15 10:28:05;;;;;;;6.93;4.45;;;37.70;67.60;;;;;;5012894;28;20037;-81
2022/08/15 10:30:37;;;;;;;6.07;4.03;;;37.50;68.20;;;;;;5025942;28;20041;-81
2022/08/15 10:33:31;;;;;;;8.40;4.78;;;37.40;68.80;;;;;;5016232;28;20090;-81
2022/08/15 10:36:26;;;;;;;7.38;4.35;;;36.40;69.60;;;;;;5029239;28;20044;-81
2022/08/15 10:39:16;;;;;;;6.47;4.40;;;36.20;70.20;;;;;;5011700;28;20123;-81
2022/08/15 10:42:15;;;;;;;7.07;4.70;;;35.80;72.50;;;;;;5030947;28;20855;-81
2022/08/15 10:44:53;;;;;;;10.13;4.68;;;35.70;72.20;;;;;;5032301;28;20360;-79
2022/08/15 10:47:37;;;;;;;7.00;4.10;;;34.90;72.50;;;;;;5017527;28;20087;-79
2022/08/15 10:50:27;;;;;;;6.38;4.53;;;34.70;73.40;;;;;;5036790;28;20108;-80
2022/08/15 10:53:00;;;;;;;8.50;5.03;;;34.20;74.10;;;;;;5036702;28;20036;-81
2022/08/15 10:55:33;;;;;;;6.95;4.68;;;33.40;73.80;;;;;;5034574;28;20108;-81
2022/08/15 10:58:14;;;;;;;6.03;4.05;;;32.70;75.80;;;;;;5035058;28;20269;-80
2022/08/15 11:01:03;;;;;;;6.97;4.47;;;32.20;77.90;;;;;;5036026;28;20544;-80
2022/08/15 11:03:49;;;;;;;7.97;4.28;;;31.40;77.80;;;;;;5035492;28;20036;-80
2022/08/15 11:06:19;;;;;;;9.38;5.15;;;31.20;78.30;;;;;;5036501;28;20047;-80
2022/08/15 11:08:53;;;;;;;6.85;4.25;;;30.80;78.60;;;;;;5018941;28;20037;-80
2022/08/15 11:11:22;;;;;;;7.30;4.38;;;30.80;78.60;;;;;;5036800;28;20428;-80
2022/08/15 11:13:58;;;;;;;7.18;4.05;;;30.60;80.20;;;;;;5036847;28;20441;-80
2022/08/15 11:16:37;;;;;;;8.05;4.25;;;30.40;81.70;;;;;;5031080;28;20046;-82
2022/08/15 11:19:24;;;;;;;8.40;5.00;;;30.30;81.30;;;;;;5036042;28;20434;-80
2022/08/15 11:21:57;;;;;;;12.50;4.80;;;30.10;81.70;;;;;;5025960;28;20045;-80
2022/08/15 11:24:28;;;;;;;7.40;4.32;;;29.80;82.70;;;;;;5024386;28;20042;-79
2022/08/15 11:27:16;;;;;;;8.20;4.18;;;29.80;84.90;;;;;;5008962;28;20029;-80
2022/08/15 11:29:44;;;;;;;6.93;4.40;;;29.60;87.30;;;;;;5028043;28;20056;-80
2022/08/15 11:32:21;;;;;;;7.85;4.18;;;29.50;89.60;;;;;;5009105;28;20045;-80
2022/08/15 11:34:47;;;;;;;7.82;4.15;;;29.50;91.50;;;;;;5029713;28;20458;-80
2022/08/15 11:37:40;;;;;;;7.18;4.45;;;29.50;90.30;;;;;;5032844;28;20068;-80
2022/08/15 11:40:31;;;;;;;7.43;4.45;;;29.40;91.80;;;;;;5032557;28;20041;-80
2022/08/15 11:43:00;;;;;;;11.50;5.53;;;29.40;90.80;;;;;;5019323;28;20041;-80
2022/08/15 11:45:45;;;;;;;8.00;4.90;;;29.60;91.20;;;;;;5000788;28;20072;-80
2022/08/15 11:48:18;;;;;;;6.88;4.35;;;29.70;91.60;;;;;;5029651;28;20091;-80
2022/08/15 11:51:00;;;;;;;8.25;4.43;;;29.90;90.60;;;;;;5013443;28;20460;-79
2022/08/15 11:53:30;;;;;;;9.73;4.85;;;30.20;90.30;;;;;;5014985;28;20124;-80
2022/08/15 11:55:55;;;;;;;6.88;4.78;;;30.50;90.30;;;;;;5031590;28;20041;-80
2022/08/15 11:58:44;;;;;;;11.07;5.72;;;30.60;88.80;;;;;;5034280;28;20045;-80
2022/08/15 12:01:29;;;;;;;7.20;4.88;;;30.70;90.00;;;;;;5015964;28;20395;-80
2022/08/15 12:04:05;;;;;;;7.05;4.60;;;31.10;88.40;;;;;;5028600;28;20076;-79
2022/08/15 12:06:40;;;;;;;5.97;4.28;;;31.00;88.90;;;;;;5030862;28;20037;-79
2022/08/15 12:09:34;;;;;;;9.05;4.00;;;30.90;89.50;;;;;;5015192;28;20045;-79
2022/08/15 12:12:01;;;;;;;7.43;4.80;;;31.00;90.00;;;;;;5032031;28;20080;-79
2022/08/15 12:14:28;;;;;;;8.48;4.22;;;30.80;89.20;;;;;;5019128;28;20040;-79
2022/08/15 12:16:56;;;;;;;7.38;3.88;;;30.60;89.40;;;;;;5015880;28;20569;-80
2022/08/15 12:19:37;;;;;;;5.38;3.50;;;30.60;89.90;;;;;;5032244;28;20068;-79
2022/08/15 12:22:13;;;;;;;7.38;4.15;;;30.60;90.00;;;;;;5018814;28;20344;-80
2022/08/15 12:24:40;;;;;;;;;;;30.70;89.90;;;;;;5016954;28;20049;-81
2022/08/15 12:27:07;;;;;;;9.35;4.38;;;30.60;89.70;;;;;;5010083;28;19964;-81
2022/08/15 12:29:33;;;;;;;8.70;5.47;;;30.60;89.40;;;;;;5035060;28;20107;-81
2022/08/15 12:32:02;;;;;;;6.63;4.40;;;30.50;88.70;;;;;;5035659;28;20087;-82
2022/08/15 12:34:36;;;;;;;5.95;3.90;;;30.30;89.80;;;;;;5021854;28;20394;-81
2022/08/15 12:37:04;;;;;;;5.65;3.70;;;30.30;89.80;;;;;;5035832;28;20052;-82
2022/08/15 12:39:30;;;;;;;6.00;4.00;;;30.20;90.50;;;;;;5035012;28;20056;-81
2022/08/15 12:41:56;;;;;;;7.57;4.50;;;30.20;90.50;;;;;;5019310;28;20045;-79
2022/08/15 12:44:28;;;;;;;7.82;3.85;;;30.20;90.10;;;;;;5018732;28;20040;-80
2022/08/15 12:46:55;;;;;;;5.88;4.22;;;30.10;88.60;;;;;;5018427;28;20464;-79
2022/08/15 12:49:21;;;;;;;6.50;3.58;;;30.20;86.20;;;;;;5002522;28;20056;-80
2022/08/15 12:51:47;;;;;;;5.13;2.85;;;30.10;85.90;;;;;;4979703;28;20054;-80
2022/08/15 12:54:14;;;;;;;4.93;2.95;;;30.10;85.30;;;;;;5014155;28;20048;-79
2022/08/15 12:56:41;;;;;;;5.35;3.45;;;30.10;85.70;;;;;;5015201;28;20510;-79
2022/08/15 12:59:07;;;;;;;5.10;3.38;;;30.20;85.70;;;;;;4998444;28;20048;-80
2022/08/15 13:01:34;;;;;;;4.65;3.10;;;30.20;85.10;;;;;;5015769;28;20041;-79
2022/08/15 13:04:04;;;;;;;4.15;2.40;;;30.30;86.00;;;;;;5016239;28;20041;-79
2022/08/15 13:06:42;;;;;;;4.50;2.50;;;30.60;86.30;;;;;;5019127;28;20044;-79
2022/08/15 13:09:09;;;;;;;4.45;2.95;;;30.90;85.90;;;;;;5019442;28;20041;-79
2022/08/15 13:11:40;;;;;;;4.22;2.80;;;31.20;84.50;;;;;;5019312;28;20048;-80
2022/08/15 13:14:07;;;;;;;6.55;3.05;;;31.30;84.10;;;;;;5008147;28;20069;-81
2022/08/15 13:16:35;;;;;;;5.55;3.15;;;31.30;84.30;;;;;;4993731;28;20479;-82
2022/08/15 13:19:02;;;;;;;5.65;3.30;;;31.00;84.40;;;;;;5018470;28;20037;-84
2022/08/15 13:24:12;;;;;;;4.50;3.00;;;30.80;82.60;;;;;;5018245;28;20128;-82
2022/08/15 13:26:40;;;;;;;5.75;2.60;;;30.60;82.50;;;;;;4984021;28;20121;-81
2022/08/15 13:29:06;;;;;;;4.72;2.38;;;30.50;80.10;;;;;;5018775;28;20037;-82
2022/08/15 13:31:34;;;;;;;4.03;2.38;;;30.50;79.10;;;;;;5002335;28;20459;-82
2022/08/15 13:34:00;;;;;;;5.65;2.10;;;30.40;80.20;;;;;;5018319;28;20045;-82